sensor_id;sensor_type;location;lat;lon;timestamp;P1;durP1;ratioP1;P2;durP2;ratioP2
71312;SDS011;59104;44.738;20.612;2022-09-16T00:02:17;3.30;;;1.35;;
71312;SDS011;59104;44.738;20.612;2022-09-16T00:04:42;5.82;;;1.40;;
71312;SDS011;59104;44.738;20.612;2022-09-16T00:07:08;3.60;;;1.42;;
71312;SDS011;59104;44.738;20.612;2022-09-16T00:09:35;2.47;;;1.38;;
71312;SDS011;59104;44.738;20.612;2022-09-16T00:12:01;3.35;;;1.35;;
71312;SDS011;59104;44.738;20.612;2022-09-16T00:14:27;4.13;;;1.20;;
71312;SDS011;59104;44.738;20.612;2022-09-16T00:16:52;3.03;;;1.10;;
71312;SDS011;59104;44.738;20.612;2022-09-16T00:19:17;3.58;;;1.63;;
71312;SDS011;59104;44.738;20.612;2022-09-16T00:21:43;1.55;;;1.00;;
71312;SDS011;59104;44.738;20.612;2022-09-16T00:24:10;2.38;;;0.90;;
71312;SDS011;59104;44.738;20.612;2022-09-16T00:26:38;3.17;;;0.93;;
71312;SDS011;59104;44.738;20.612;2022-09-16T00:29:04;2.97;;;0.70;;
71312;SDS011;59104;44.738;20.612;2022-09-16T00:31:29;4.90;;;1.25;;
71312;SDS011;59104;44.738;20.612;2022-09-16T00:33:55;1.83;;;0.68;;
71312;SDS011;59104;44.738;20.612;2022-09-16T00:36:20;1.58;;;0.80;;
71312;SDS011;59104;44.738;20.612;2022-09-16T00:38:48;4.20;;;1.33;;
71312;SDS011;59104;44.738;20.612;2022-09-16T00:41:16;4.38;;;1.05;;
71312;SDS011;59104;44.738;20.612;2022-09-16T00:43:46;2.75;;;0.90;;
71312;SDS011;59104;44.738;20.612;2022-09-16T00:46:11;3.13;;;1.27;;
71312;SDS011;59104;44.738;20.612;2022-09-16T00:48:37;4.65;;;1.00;;
71312;SDS011;59104;44.738;20.612;2022-09-16T00:51:04;3.42;;;1.10;;
71312;SDS011;59104;44.738;20.612;2022-09-16T00:53:33;1.15;;;0.75;;
71312;SDS011;59104;44.738;20.612;2022-09-16T00:56:00;1.48;;;0.93;;
71312;SDS011;59104;44.738;20.612;2022-09-16T01:00:55;2.22;;;0.85;;
71312;SDS011;59104;44.738;20.612;2022-09-16T01:03:21;2.30;;;1.05;;
71312;SDS011;59104;44.738;20.612;2022-09-16T01:05:47;1.60;;;0.80;;
71312;SDS011;59104;44.738;20.612;2022-09-16T01:08:13;0.90;;;0.60;;
71312;SDS011;59104;44.738;20.612;2022-09-16T01:10:39;3.75;;;1.00;;
71312;SDS011;59104;44.738;20.612;2022-09-16T01:13:05;2.28;;;1.00;;
71312;SDS011;59104;44.738;20.612;2022-09-16T01:15:54;3.00;;;0.80;;
71312;SDS011;59104;44.738;20.612;2022-09-16T01:18:39;2.72;;;1.55;;
71312;SDS011;59104;44.738;20.612;2022-09-16T01:31:36;2.42;;;1.10;;
71312;SDS011;59104;44.738;20.612;2022-09-16T01:34:16;1.58;;;1.00;;
71312;SDS011;59104;44.738;20.612;2022-09-16T01:36:48;2.10;;;0.68;;
71312;SDS011;59104;44.738;20.612;2022-09-16T01:42:04;1.58;;;0.88;;
71312;SDS011;59104;44.738;20.612;2022-09-16T01:44:41;3.03;;;0.80;;
71312;SDS011;59104;44.738;20.612;2022-09-16T01:47:16;4.13;;;1.50;;
71312;SDS011;59104;44.738;20.612;2022-09-16T01:52:22;1.70;;;0.75;;
71312;SDS011;59104;44.738;20.612;2022-09-16T01:55:00;2.20;;;0.80;;
71312;SDS011;59104;44.738;20.612;2022-09-16T01:57:30;2.72;;;0.75;;
71312;SDS011;59104;44.738;20.612;2022-09-16T02:00:06;3.00;;;0.82;;
71312;SDS011;59104;44.738;20.612;2022-09-16T02:05:32;3.22;;;1.27;;
71312;SDS011;59104;44.738;20.612;2022-09-16T02:08:03;2.83;;;1.08;;
71312;SDS011;59104;44.738;20.612;2022-09-16T02:10:31;3.53;;;0.98;;
71312;SDS011;59104;44.738;20.612;2022-09-16T02:13:05;3.08;;;1.23;;
71312;SDS011;59104;44.738;20.612;2022-09-16T02:15:33;1.38;;;0.95;;
71312;SDS011;59104;44.738;20.612;2022-09-16T02:18:03;3.55;;;1.20;;
71312;SDS011;59104;44.738;20.612;2022-09-16T02:20:30;4.00;;;1.05;;
71312;SDS011;59104;44.738;20.612;2022-09-16T02:22:58;2.40;;;1.20;;
71312;SDS011;59104;44.738;20.612;2022-09-16T02:25:24;3.55;;;1.10;;
71312;SDS011;59104;44.738;20.612;2022-09-16T02:27:51;1.38;;;0.80;;
71312;SDS011;59104;44.738;20.612;2022-09-16T02:30:18;2.15;;;0.80;;
71312;SDS011;59104;44.738;20.612;2022-09-16T02:32:52;3.17;;;1.00;;
71312;SDS011;59104;44.738;20.612;2022-09-16T02:35:20;3.75;;;1.10;;
71312;SDS011;59104;44.738;20.612;2022-09-16T02:37:48;4.45;;;0.90;;
71312;SDS011;59104;44.738;20.612;2022-09-16T02:40:15;3.58;;;1.00;;
71312;SDS011;59104;44.738;20.612;2022-09-16T02:42:42;2.72;;;1.05;;
71312;SDS011;59104;44.738;20.612;2022-09-16T02:45:08;3.10;;;1.00;;
71312;SDS011;59104;44.738;20.612;2022-09-16T02:50:08;2.55;;;1.45;;
71312;SDS011;59104;44.738;20.612;2022-09-16T02:55:02;1.58;;;0.80;;
71312;SDS011;59104;44.738;20.612;2022-09-16T02:57:30;4.03;;;1.20;;
71312;SDS011;59104;44.738;20.612;2022-09-16T02:59:55;2.95;;;1.35;;
71312;SDS011;59104;44.738;20.612;2022-09-16T03:02:21;3.22;;;0.98;;
71312;SDS011;59104;44.738;20.612;2022-09-16T03:04:46;3.85;;;0.98;;
71312;SDS011;59104;44.738;20.612;2022-09-16T03:07:12;1.17;;;0.85;;
71312;SDS011;59104;44.738;20.612;2022-09-16T03:09:40;2.95;;;1.20;;
71312;SDS011;59104;44.738;20.612;2022-09-16T03:12:08;3.40;;;1.08;;
71312;SDS011;59104;44.738;20.612;2022-09-16T03:26:56;1.23;;;0.90;;
71312;SDS011;59104;44.738;20.612;2022-09-16T03:29:40;2.70;;;0.90;;
71312;SDS011;59104;44.738;20.612;2022-09-16T03:32:19;3.97;;;0.93;;
71312;SDS011;59104;44.738;20.612;2022-09-16T03:37:13;3.45;;;1.38;;
71312;SDS011;59104;44.738;20.612;2022-09-16T03:39:39;4.03;;;1.20;;
71312;SDS011;59104;44.738;20.612;2022-09-16T03:42:06;3.00;;;1.30;;
71312;SDS011;59104;44.738;20.612;2022-09-16T03:44:35;6.07;;;1.52;;
71312;SDS011;59104;44.738;20.612;2022-09-16T03:47:04;2.17;;;1.10;;
71312;SDS011;59104;44.738;20.612;2022-09-16T03:49:30;3.60;;;1.50;;
71312;SDS011;59104;44.738;20.612;2022-09-16T03:51:55;3.90;;;1.65;;
71312;SDS011;59104;44.738;20.612;2022-09-16T03:54:21;4.03;;;1.20;;
71312;SDS011;59104;44.738;20.612;2022-09-16T03:56:47;1.88;;;0.90;;
71312;SDS011;59104;44.738;20.612;2022-09-16T03:59:12;2.78;;;1.00;;
71312;SDS011;59104;44.738;20.612;2022-09-16T04:01:37;3.03;;;1.10;;
71312;SDS011;59104;44.738;20.612;2022-09-16T04:04:03;5.47;;;1.10;;
71312;SDS011;59104;44.738;20.612;2022-09-16T04:06:28;3.42;;;0.82;;
71312;SDS011;59104;44.738;20.612;2022-09-16T04:08:54;1.00;;;0.50;;
71312;SDS011;59104;44.738;20.612;2022-09-16T04:11:21;2.83;;;0.90;;
71312;SDS011;59104;44.738;20.612;2022-09-16T04:13:47;3.45;;;1.30;;
71312;SDS011;59104;44.738;20.612;2022-09-16T04:16:17;5.75;;;1.75;;
71312;SDS011;59104;44.738;20.612;2022-09-16T04:18:43;3.25;;;1.10;;
71312;SDS011;59104;44.738;20.612;2022-09-16T04:21:08;4.32;;;1.10;;
71312;SDS011;59104;44.738;20.612;2022-09-16T04:23:34;5.30;;;1.20;;
71312;SDS011;59104;44.738;20.612;2022-09-16T04:25:59;1.60;;;0.85;;
71312;SDS011;59104;44.738;20.612;2022-09-16T04:28:26;2.13;;;0.98;;
71312;SDS011;59104;44.738;20.612;2022-09-16T04:30:51;1.63;;;1.25;;
71312;SDS011;59104;44.738;20.612;2022-09-16T04:33:17;2.97;;;1.10;;
71312;SDS011;59104;44.738;20.612;2022-09-16T04:35:42;2.70;;;1.15;;
71312;SDS011;59104;44.738;20.612;2022-09-16T04:38:08;3.75;;;0.95;;
71312;SDS011;59104;44.738;20.612;2022-09-16T04:40:33;3.33;;;0.95;;
71312;SDS011;59104;44.738;20.612;2022-09-16T04:42:59;3.90;;;1.00;;
71312;SDS011;59104;44.738;20.612;2022-09-16T04:45:24;2.60;;;1.05;;
71312;SDS011;59104;44.738;20.612;2022-09-16T04:47:56;2.40;;;1.10;;
71312;SDS011;59104;44.738;20.612;2022-09-16T04:50:22;1.35;;;1.20;;
71312;SDS011;59104;44.738;20.612;2022-09-16T04:52:47;4.03;;;1.33;;
71312;SDS011;59104;44.738;20.612;2022-09-16T04:55:13;1.70;;;1.05;;
71312;SDS011;59104;44.738;20.612;2022-09-16T04:57:38;2.38;;;1.25;;
71312;SDS011;59104;44.738;20.612;2022-09-16T05:00:04;3.20;;;1.77;;
71312;SDS011;59104;44.738;20.612;2022-09-16T05:02:29;4.15;;;2.28;;
71312;SDS011;59104;44.738;20.612;2022-09-16T05:04:55;4.53;;;1.77;;
71312;SDS011;59104;44.738;20.612;2022-09-16T05:07:20;2.90;;;1.58;;
71312;SDS011;59104;44.738;20.612;2022-09-16T05:09:46;2.97;;;1.67;;
71312;SDS011;59104;44.738;20.612;2022-09-16T05:12:11;4.00;;;1.50;;
71312;SDS011;59104;44.738;20.612;2022-09-16T05:14:37;5.13;;;1.83;;
71312;SDS011;59104;44.738;20.612;2022-09-16T05:17:02;3.78;;;1.45;;
71312;SDS011;59104;44.738;20.612;2022-09-16T05:19:28;4.97;;;1.60;;
71312;SDS011;59104;44.738;20.612;2022-09-16T05:21:53;4.75;;;1.35;;
71312;SDS011;59104;44.738;20.612;2022-09-16T05:24:19;3.72;;;1.23;;
71312;SDS011;59104;44.738;20.612;2022-09-16T05:26:44;2.65;;;1.48;;
71312;SDS011;59104;44.738;20.612;2022-09-16T05:29:11;3.88;;;2.05;;
71312;SDS011;59104;44.738;20.612;2022-09-16T05:31:38;4.32;;;2.10;;
71312;SDS011;59104;44.738;20.612;2022-09-16T05:34:05;4.32;;;2.17;;
71312;SDS011;59104;44.738;20.612;2022-09-16T05:36:31;6.10;;;2.92;;
71312;SDS011;59104;44.738;20.612;2022-09-16T05:38:58;5.30;;;3.17;;
71312;SDS011;59104;44.738;20.612;2022-09-16T05:41:23;5.35;;;2.80;;
71312;SDS011;59104;44.738;20.612;2022-09-16T05:43:49;5.35;;;2.22;;
71312;SDS011;59104;44.738;20.612;2022-09-16T05:46:21;2.55;;;1.60;;
71312;SDS011;59104;44.738;20.612;2022-09-16T05:48:47;2.42;;;1.60;;
71312;SDS011;59104;44.738;20.612;2022-09-16T05:51:14;5.97;;;1.85;;
71312;SDS011;59104;44.738;20.612;2022-09-16T05:53:40;3.70;;;1.67;;
71312;SDS011;59104;44.738;20.612;2022-09-16T05:56:07;3.03;;;1.55;;
71312;SDS011;59104;44.738;20.612;2022-09-16T05:58:35;4.90;;;2.42;;
71312;SDS011;59104;44.738;20.612;2022-09-16T06:01:05;4.20;;;2.75;;
71312;SDS011;59104;44.738;20.612;2022-09-16T06:03:31;7.00;;;2.80;;
71312;SDS011;59104;44.738;20.612;2022-09-16T06:06:01;6.20;;;2.50;;
71312;SDS011;59104;44.738;20.612;2022-09-16T06:08:28;4.45;;;2.10;;
71312;SDS011;59104;44.738;20.612;2022-09-16T06:10:53;5.13;;;2.00;;
71312;SDS011;59104;44.738;20.612;2022-09-16T06:13:19;5.40;;;2.15;;
71312;SDS011;59104;44.738;20.612;2022-09-16T06:15:48;3.13;;;1.45;;
71312;SDS011;59104;44.738;20.612;2022-09-16T06:18:13;4.07;;;1.83;;
71312;SDS011;59104;44.738;20.612;2022-09-16T06:20:40;3.72;;;1.50;;
71312;SDS011;59104;44.738;20.612;2022-09-16T06:23:06;2.00;;;1.27;;
71312;SDS011;59104;44.738;20.612;2022-09-16T06:25:31;3.22;;;1.48;;
71312;SDS011;59104;44.738;20.612;2022-09-16T06:27:58;4.20;;;2.03;;
71312;SDS011;59104;44.738;20.612;2022-09-16T06:30:23;3.50;;;1.42;;
71312;SDS011;59104;44.738;20.612;2022-09-16T06:32:49;4.53;;;1.83;;
71312;SDS011;59104;44.738;20.612;2022-09-16T06:35:14;8.73;;;2.10;;
71312;SDS011;59104;44.738;20.612;2022-09-16T06:37:40;4.68;;;1.92;;
71312;SDS011;59104;44.738;20.612;2022-09-16T06:40:05;4.95;;;2.33;;
71312;SDS011;59104;44.738;20.612;2022-09-16T06:42:31;5.85;;;2.78;;
71312;SDS011;59104;44.738;20.612;2022-09-16T06:45:02;5.10;;;2.88;;
71312;SDS011;59104;44.738;20.612;2022-09-16T06:47:29;5.13;;;2.20;;
71312;SDS011;59104;44.738;20.612;2022-09-16T06:49:56;5.05;;;2.40;;
71312;SDS011;59104;44.738;20.612;2022-09-16T06:52:21;4.80;;;2.22;;
71312;SDS011;59104;44.738;20.612;2022-09-16T06:54:47;6.25;;;2.60;;
71312;SDS011;59104;44.738;20.612;2022-09-16T06:57:13;5.85;;;1.83;;
71312;SDS011;59104;44.738;20.612;2022-09-16T06:59:38;4.53;;;2.15;;
71312;SDS011;59104;44.738;20.612;2022-09-16T07:02:04;5.95;;;2.10;;
71312;SDS011;59104;44.738;20.612;2022-09-16T07:04:29;3.42;;;1.77;;
71312;SDS011;59104;44.738;20.612;2022-09-16T07:06:56;5.93;;;2.10;;
71312;SDS011;59104;44.738;20.612;2022-09-16T07:09:22;4.90;;;2.42;;
71312;SDS011;59104;44.738;20.612;2022-09-16T07:11:48;4.53;;;2.55;;
71312;SDS011;59104;44.738;20.612;2022-09-16T07:14:13;6.15;;;2.08;;
71312;SDS011;59104;44.738;20.612;2022-09-16T07:16:38;4.63;;;2.25;;
71312;SDS011;59104;44.738;20.612;2022-09-16T07:19:04;5.45;;;2.33;;
71312;SDS011;59104;44.738;20.612;2022-09-16T07:21:29;3.28;;;1.98;;
71312;SDS011;59104;44.738;20.612;2022-09-16T07:23:55;4.07;;;2.38;;
71312;SDS011;59104;44.738;20.612;2022-09-16T07:26:23;4.28;;;2.35;;
71312;SDS011;59104;44.738;20.612;2022-09-16T07:28:50;4.60;;;2.58;;
71312;SDS011;59104;44.738;20.612;2022-09-16T07:31:26;9.65;;;2.58;;
71312;SDS011;59104;44.738;20.612;2022-09-16T07:33:53;3.83;;;2.60;;
71312;SDS011;59104;44.738;20.612;2022-09-16T07:36:21;6.40;;;2.65;;
71312;SDS011;59104;44.738;20.612;2022-09-16T07:38:47;5.45;;;2.55;;
71312;SDS011;59104;44.738;20.612;2022-09-16T07:41:16;3.15;;;2.00;;
71312;SDS011;59104;44.738;20.612;2022-09-16T07:43:42;3.40;;;1.48;;
71312;SDS011;59104;44.738;20.612;2022-09-16T07:46:08;3.67;;;1.55;;
71312;SDS011;59104;44.738;20.612;2022-09-16T07:48:34;4.80;;;2.00;;
71312;SDS011;59104;44.738;20.612;2022-09-16T07:51:01;4.50;;;1.50;;
71312;SDS011;59104;44.738;20.612;2022-09-16T07:53:27;4.45;;;1.98;;
71312;SDS011;59104;44.738;20.612;2022-09-16T07:55:54;4.70;;;2.08;;
71312;SDS011;59104;44.738;20.612;2022-09-16T07:58:20;5.32;;;2.13;;
71312;SDS011;59104;44.738;20.612;2022-09-16T08:00:46;2.40;;;1.50;;
71312;SDS011;59104;44.738;20.612;2022-09-16T08:03:12;4.22;;;1.70;;
71312;SDS011;59104;44.738;20.612;2022-09-16T08:05:37;7.00;;;2.08;;
71312;SDS011;59104;44.738;20.612;2022-09-16T08:08:03;2.10;;;1.67;;
71312;SDS011;59104;44.738;20.612;2022-09-16T08:10:29;4.13;;;1.90;;
71312;SDS011;59104;44.738;20.612;2022-09-16T08:12:54;4.05;;;1.67;;
71312;SDS011;59104;44.738;20.612;2022-09-16T08:15:20;2.80;;;1.77;;
71312;SDS011;59104;44.738;20.612;2022-09-16T08:17:45;2.90;;;1.65;;
71312;SDS011;59104;44.738;20.612;2022-09-16T08:20:11;3.35;;;1.63;;
71312;SDS011;59104;44.738;20.612;2022-09-16T08:22:36;5.38;;;2.08;;
71312;SDS011;59104;44.738;20.612;2022-09-16T08:25:02;2.80;;;1.70;;
71312;SDS011;59104;44.738;20.612;2022-09-16T08:27:27;2.67;;;1.48;;
71312;SDS011;59104;44.738;20.612;2022-09-16T08:29:52;2.50;;;1.13;;
71312;SDS011;59104;44.738;20.612;2022-09-16T08:32:18;3.03;;;1.35;;
71312;SDS011;59104;44.738;20.612;2022-09-16T08:34:43;1.90;;;1.20;;
71312;SDS011;59104;44.738;20.612;2022-09-16T08:37:09;2.47;;;1.00;;
71312;SDS011;59104;44.738;20.612;2022-09-16T08:39:35;2.55;;;1.27;;
71312;SDS011;59104;44.738;20.612;2022-09-16T08:47:08;2.47;;;0.80;;
71312;SDS011;59104;44.738;20.612;2022-09-16T08:52:11;1.42;;;0.73;;
71312;SDS011;59104;44.738;20.612;2022-09-16T08:54:41;2.45;;;1.23;;
71312;SDS011;59104;44.738;20.612;2022-09-16T08:57:10;7.68;;;3.47;;
71312;SDS011;59104;44.738;20.612;2022-09-16T08:59:38;8.25;;;4.20;;
71312;SDS011;59104;44.738;20.612;2022-09-16T09:02:20;4.15;;;1.55;;
71312;SDS011;59104;44.738;20.612;2022-09-16T09:04:46;2.35;;;1.42;;
71312;SDS011;59104;44.738;20.612;2022-09-16T09:09:47;1.90;;;1.10;;
71312;SDS011;59104;44.738;20.612;2022-09-16T09:32:48;1.05;;;0.80;;
71312;SDS011;59104;44.738;20.612;2022-09-16T09:35:38;1.25;;;0.80;;
71312;SDS011;59104;44.738;20.612;2022-09-16T09:40:50;1.48;;;0.98;;
71312;SDS011;59104;44.738;20.612;2022-09-16T09:43:18;2.38;;;1.10;;
71312;SDS011;59104;44.738;20.612;2022-09-16T09:46:04;2.60;;;0.70;;
71312;SDS011;59104;44.738;20.612;2022-09-16T09:48:45;1.92;;;0.60;;
71312;SDS011;59104;44.738;20.612;2022-09-16T09:51:27;0.93;;;0.40;;
71312;SDS011;59104;44.738;20.612;2022-09-16T09:53:55;1.33;;;0.73;;
71312;SDS011;59104;44.738;20.612;2022-09-16T09:56:25;1.33;;;0.55;;
71312;SDS011;59104;44.738;20.612;2022-09-16T10:01:18;0.87;;;0.47;;
71312;SDS011;59104;44.738;20.612;2022-09-16T10:03:44;1.10;;;0.50;;
71312;SDS011;59104;44.738;20.612;2022-09-16T10:06:11;2.55;;;0.55;;
71312;SDS011;59104;44.738;20.612;2022-09-16T10:08:42;0.30;;;0.30;;
71312;SDS011;59104;44.738;20.612;2022-09-16T10:11:17;3.50;;;0.40;;
71312;SDS011;59104;44.738;20.612;2022-09-16T10:14:18;0.40;;;0.30;;
71312;SDS011;59104;44.738;20.612;2022-09-16T10:16:35;0.75;;;0.30;;
71312;SDS011;59104;44.738;20.612;2022-09-16T10:19:03;4.03;;;1.60;;
71312;SDS011;59104;44.738;20.612;2022-09-16T10:21:51;1.65;;;0.57;;
71312;SDS011;59104;44.738;20.612;2022-09-16T10:24:31;1.10;;;0.60;;
71312;SDS011;59104;44.738;20.612;2022-09-16T10:26:57;1.77;;;0.50;;
71312;SDS011;59104;44.738;20.612;2022-09-16T10:29:23;0.55;;;0.45;;
71312;SDS011;59104;44.738;20.612;2022-09-16T10:31:48;4.35;;;1.88;;
71312;SDS011;59104;44.738;20.612;2022-09-16T10:34:17;3.17;;;1.60;;
71312;SDS011;59104;44.738;20.612;2022-09-16T10:36:43;8.57;;;3.90;;
71312;SDS011;59104;44.738;20.612;2022-09-16T10:39:19;8.52;;;3.47;;
71312;SDS011;59104;44.738;20.612;2022-09-16T10:41:46;6.75;;;2.63;;
71312;SDS011;59104;44.738;20.612;2022-09-16T10:44:13;3.40;;;1.17;;
71312;SDS011;59104;44.738;20.612;2022-09-16T10:46:48;2.40;;;1.02;;
71312;SDS011;59104;44.738;20.612;2022-09-16T10:49:23;3.55;;;1.30;;
71312;SDS011;59104;44.738;20.612;2022-09-16T10:51:50;3.25;;;1.27;;
71312;SDS011;59104;44.738;20.612;2022-09-16T10:54:23;20.30;;;8.85;;
71312;SDS011;59104;44.738;20.612;2022-09-16T10:56:49;16.52;;;8.07;;
71312;SDS011;59104;44.738;20.612;2022-09-16T10:59:15;39.53;;;17.85;;
71312;SDS011;59104;44.738;20.612;2022-09-16T11:06:59;22.15;;;7.95;;
71312;SDS011;59104;44.738;20.612;2022-09-16T11:09:31;94.03;;;39.38;;
71312;SDS011;59104;44.738;20.612;2022-09-16T11:12:06;55.58;;;25.83;;
71312;SDS011;59104;44.738;20.612;2022-09-16T11:14:48;41.33;;;16.38;;
71312;SDS011;59104;44.738;20.612;2022-09-16T11:30:24;8.18;;;4.65;;
71312;SDS011;59104;44.738;20.612;2022-09-16T11:47:49;4.22;;;2.35;;
71312;SDS011;59104;44.738;20.612;2022-09-16T11:58:20;3.25;;;1.98;;
71312;SDS011;59104;44.738;20.612;2022-09-16T12:00:48;4.30;;;2.45;;
71312;SDS011;59104;44.738;20.612;2022-09-16T12:05:55;5.55;;;3.20;;
71312;SDS011;59104;44.738;20.612;2022-09-16T12:08:42;5.32;;;2.50;;
71312;SDS011;59104;44.738;20.612;2022-09-16T12:13:38;4.93;;;2.70;;
71312;SDS011;59104;44.738;20.612;2022-09-16T12:16:06;4.25;;;2.53;;
71312;SDS011;59104;44.738;20.612;2022-09-16T12:23:27;5.00;;;2.25;;
71312;SDS011;59104;44.738;20.612;2022-09-16T12:26:03;5.60;;;2.92;;
71312;SDS011;59104;44.738;20.612;2022-09-16T12:28:33;5.60;;;2.17;;
71312;SDS011;59104;44.738;20.612;2022-09-16T12:31:14;9.63;;;2.20;;
71312;SDS011;59104;44.738;20.612;2022-09-16T12:36:45;3.03;;;1.85;;
71312;SDS011;59104;44.738;20.612;2022-09-16T12:39:11;1.80;;;1.50;;
71312;SDS011;59104;44.738;20.612;2022-09-16T12:46:50;3.20;;;1.90;;
71312;SDS011;59104;44.738;20.612;2022-09-16T12:52:48;3.10;;;1.80;;
71312;SDS011;59104;44.738;20.612;2022-09-16T13:02:43;5.43;;;2.00;;
71312;SDS011;59104;44.738;20.612;2022-09-16T13:05:11;3.40;;;2.03;;
71312;SDS011;59104;44.738;20.612;2022-09-16T13:07:37;2.97;;;1.95;;
71312;SDS011;59104;44.738;20.612;2022-09-16T13:10:06;3.40;;;2.00;;
71312;SDS011;59104;44.738;20.612;2022-09-16T13:12:33;1.98;;;1.65;;
71312;SDS011;59104;44.738;20.612;2022-09-16T13:14:59;3.42;;;1.70;;
71312;SDS011;59104;44.738;20.612;2022-09-16T13:17:38;2.65;;;1.80;;
71312;SDS011;59104;44.738;20.612;2022-09-16T13:20:05;3.65;;;2.13;;
71312;SDS011;59104;44.738;20.612;2022-09-16T13:27:35;2.40;;;1.90;;
71312;SDS011;59104;44.738;20.612;2022-09-16T13:30:43;1.80;;;1.52;;
71312;SDS011;59104;44.738;20.612;2022-09-16T13:37:40;2.50;;;1.45;;
71312;SDS011;59104;44.738;20.612;2022-09-16T13:40:16;2.65;;;1.50;;
71312;SDS011;59104;44.738;20.612;2022-09-16T13:42:42;2.80;;;1.40;;
71312;SDS011;59104;44.738;20.612;2022-09-16T13:47:52;3.63;;;2.08;;
71312;SDS011;59104;44.738;20.612;2022-09-16T13:50:17;3.03;;;1.67;;
71312;SDS011;59104;44.738;20.612;2022-09-16T13:52:45;3.45;;;1.65;;
71312;SDS011;59104;44.738;20.612;2022-09-16T13:55:24;3.55;;;2.17;;
71312;SDS011;59104;44.738;20.612;2022-09-16T14:00:20;2.53;;;1.88;;
71312;SDS011;59104;44.738;20.612;2022-09-16T14:13:11;3.55;;;2.13;;
71312;SDS011;59104;44.738;20.612;2022-09-16T14:15:39;2.90;;;2.35;;
71312;SDS011;59104;44.738;20.612;2022-09-16T14:18:06;2.95;;;2.42;;
71312;SDS011;59104;44.738;20.612;2022-09-16T14:20:33;5.85;;;2.50;;
71312;SDS011;59104;44.738;20.612;2022-09-16T14:23:03;3.47;;;2.42;;
71312;SDS011;59104;44.738;20.612;2022-09-16T14:25:30;3.03;;;2.40;;
71312;SDS011;59104;44.738;20.612;2022-09-16T14:30:54;3.92;;;2.15;;
71312;SDS011;59104;44.738;20.612;2022-09-16T14:33:22;3.25;;;2.30;;
71312;SDS011;59104;44.738;20.612;2022-09-16T14:35:48;3.15;;;2.53;;
71312;SDS011;59104;44.738;20.612;2022-09-16T14:38:14;2.33;;;2.10;;
71312;SDS011;59104;44.738;20.612;2022-09-16T14:40:41;3.40;;;2.20;;
71312;SDS011;59104;44.738;20.612;2022-09-16T14:43:08;4.03;;;2.80;;
71312;SDS011;59104;44.738;20.612;2022-09-16T14:45:36;2.88;;;2.38;;
71312;SDS011;59104;44.738;20.612;2022-09-16T14:48:05;3.85;;;2.50;;
71312;SDS011;59104;44.738;20.612;2022-09-16T14:50:31;2.33;;;2.10;;
71312;SDS011;59104;44.738;20.612;2022-09-16T14:52:58;4.65;;;2.65;;
71312;SDS011;59104;44.738;20.612;2022-09-16T14:55:25;4.65;;;2.42;;
71312;SDS011;59104;44.738;20.612;2022-09-16T14:57:51;5.63;;;2.80;;
71312;SDS011;59104;44.738;20.612;2022-09-16T15:00:17;3.28;;;2.53;;
71312;SDS011;59104;44.738;20.612;2022-09-16T15:03:00;3.00;;;2.42;;
71312;SDS011;59104;44.738;20.612;2022-09-16T15:05:31;8.45;;;2.35;;
71312;SDS011;59104;44.738;20.612;2022-09-16T15:08:20;3.38;;;2.58;;
71312;SDS011;59104;44.738;20.612;2022-09-16T15:10:44;3.80;;;2.70;;
71312;SDS011;59104;44.738;20.612;2022-09-16T15:13:11;3.42;;;2.40;;
71312;SDS011;59104;44.738;20.612;2022-09-16T15:15:37;2.90;;;2.30;;
71312;SDS011;59104;44.738;20.612;2022-09-16T15:18:11;5.90;;;2.60;;
71312;SDS011;59104;44.738;20.612;2022-09-16T15:20:47;3.65;;;2.78;;
71312;SDS011;59104;44.738;20.612;2022-09-16T15:23:24;4.53;;;2.78;;
71312;SDS011;59104;44.738;20.612;2022-09-16T15:25:51;3.17;;;2.67;;
71312;SDS011;59104;44.738;20.612;2022-09-16T15:28:18;4.15;;;2.65;;
71312;SDS011;59104;44.738;20.612;2022-09-16T15:30:47;3.08;;;2.33;;
71312;SDS011;59104;44.738;20.612;2022-09-16T15:33:24;2.78;;;2.38;;
71312;SDS011;59104;44.738;20.612;2022-09-16T15:35:52;4.43;;;2.75;;
71312;SDS011;59104;44.738;20.612;2022-09-16T15:38:21;3.13;;;2.83;;
71312;SDS011;59104;44.738;20.612;2022-09-16T15:40:48;3.85;;;3.45;;
71312;SDS011;59104;44.738;20.612;2022-09-16T15:43:27;6.25;;;3.85;;
71312;SDS011;59104;44.738;20.612;2022-09-16T15:45:58;4.35;;;3.60;;
71312;SDS011;59104;44.738;20.612;2022-09-16T15:48:24;4.35;;;3.90;;
71312;SDS011;59104;44.738;20.612;2022-09-16T15:50:52;5.07;;;3.30;;
71312;SDS011;59104;44.738;20.612;2022-09-16T15:53:39;4.43;;;3.72;;
71312;SDS011;59104;44.738;20.612;2022-09-16T15:56:08;5.00;;;4.00;;
71312;SDS011;59104;44.738;20.612;2022-09-16T15:58:41;6.28;;;4.07;;
71312;SDS011;59104;44.738;20.612;2022-09-16T16:01:10;5.35;;;4.05;;
71312;SDS011;59104;44.738;20.612;2022-09-16T16:06:08;4.75;;;3.95;;
71312;SDS011;59104;44.738;20.612;2022-09-16T16:08:42;6.25;;;3.97;;
71312;SDS011;59104;44.738;20.612;2022-09-16T16:11:09;5.53;;;3.83;;
71312;SDS011;59104;44.738;20.612;2022-09-16T16:13:35;4.82;;;3.05;;
71312;SDS011;59104;44.738;20.612;2022-09-16T16:16:01;5.88;;;4.60;;
71312;SDS011;59104;44.738;20.612;2022-09-16T16:18:28;6.47;;;4.75;;
71312;SDS011;59104;44.738;20.612;2022-09-16T16:20:57;6.72;;;4.35;;
71312;SDS011;59104;44.738;20.612;2022-09-16T16:23:22;5.25;;;3.70;;
71312;SDS011;59104;44.738;20.612;2022-09-16T16:25:48;5.15;;;4.03;;
71312;SDS011;59104;44.738;20.612;2022-09-16T16:28:13;6.55;;;4.57;;
71312;SDS011;59104;44.738;20.612;2022-09-16T16:30:39;5.18;;;4.30;;
71312;SDS011;59104;44.738;20.612;2022-09-16T16:33:05;5.00;;;4.15;;
71312;SDS011;59104;44.738;20.612;2022-09-16T16:35:31;4.65;;;4.18;;
71312;SDS011;59104;44.738;20.612;2022-09-16T16:37:56;5.95;;;2.97;;
71312;SDS011;59104;44.738;20.612;2022-09-16T16:40:22;3.88;;;3.47;;
71312;SDS011;59104;44.738;20.612;2022-09-16T16:42:48;5.15;;;4.00;;
71312;SDS011;59104;44.738;20.612;2022-09-16T16:45:14;6.15;;;5.00;;
71312;SDS011;59104;44.738;20.612;2022-09-16T16:47:40;11.27;;;7.50;;
71312;SDS011;59104;44.738;20.612;2022-09-16T16:50:06;6.88;;;5.47;;
71312;SDS011;59104;44.738;20.612;2022-09-16T16:52:31;6.07;;;4.97;;
71312;SDS011;59104;44.738;20.612;2022-09-16T16:54:58;5.22;;;4.45;;
71312;SDS011;59104;44.738;20.612;2022-09-16T16:57:23;9.75;;;5.72;;
71312;SDS011;59104;44.738;20.612;2022-09-16T16:59:49;10.05;;;4.80;;
71312;SDS011;59104;44.738;20.612;2022-09-16T17:02:15;4.47;;;3.95;;
71312;SDS011;59104;44.738;20.612;2022-09-16T17:04:41;5.43;;;4.40;;
71312;SDS011;59104;44.738;20.612;2022-09-16T17:07:06;7.28;;;4.55;;
71312;SDS011;59104;44.738;20.612;2022-09-16T17:09:32;5.13;;;3.85;;
71312;SDS011;59104;44.738;20.612;2022-09-16T17:11:59;6.13;;;3.90;;
71312;SDS011;59104;44.738;20.612;2022-09-16T17:14:26;6.53;;;4.68;;
71312;SDS011;59104;44.738;20.612;2022-09-16T17:16:52;5.13;;;4.22;;
71312;SDS011;59104;44.738;20.612;2022-09-16T17:19:19;7.63;;;5.28;;
71312;SDS011;59104;44.738;20.612;2022-09-16T17:21:45;6.65;;;3.83;;
71312;SDS011;59104;44.738;20.612;2022-09-16T17:24:11;7.50;;;4.35;;
71312;SDS011;59104;44.738;20.612;2022-09-16T17:26:37;6.13;;;4.53;;
71312;SDS011;59104;44.738;20.612;2022-09-16T17:29:02;4.75;;;4.15;;
71312;SDS011;59104;44.738;20.612;2022-09-16T17:31:29;7.75;;;3.97;;
71312;SDS011;59104;44.738;20.612;2022-09-16T17:33:56;5.88;;;3.67;;
71312;SDS011;59104;44.738;20.612;2022-09-16T17:36:23;5.57;;;3.60;;
71312;SDS011;59104;44.738;20.612;2022-09-16T17:38:55;5.18;;;3.67;;